Main page
METAR-TAF:

METAR-TAF

Airports :

Cerklje ob Krki, Slovenia

Cerklje ob Krki Airport

latitude: 45-53-59N, longitude: 15-30-55E, elevation: 157 m

Current weather observation

The report was made 37 minutes ago, at 19:00 UTC
Wind 2 kt from the East
Temperature 20°C
Humidity 64%
Pressure 1018 hPa
Visibility 10 km or more
no clouds below 1500 m and no cumulonimbus

METAR: LJCE 231900Z 08002KT CAVOK 20/13 Q1018 RMK BLU

Time: 21:37 (19:37 UTC)

Forecast

The report was made 2 hours and 37 minutes ago, at 17:00 UTC
Forecast valid from 23 at 18 UTC to 24 at 03 UTC
Wind 4 kt from the East
Visibility 10 km or more
no clouds below 1500 m and no cumulonimbus

TAF: LJCE 231700Z 2318/2403 08004KT CAVOK

Weather observations and forecasts of more than 4000 airports (METAR and TAF reports).

The available stations are represented by yellow and red dots on the map.

Hover mouse over dot to see the name of the station.

Then click to see weather observations and forecasts.

To change the map : click on the green buttons with a black cross to zoom in, on the green button with a dash to zoom out, or on the green arrows for adjacent maps.


METAR-TAF: